createdAt,value
2022-12-25T00:00:05.766Z,7.70
2022-12-25T00:01:37.892Z,11.45
2022-12-25T00:03:10.120Z,14.95
2022-12-25T00:04:42.311Z,5.35
2022-12-25T00:06:14.751Z,6.40
2022-12-25T00:07:46.851Z,8.68
2022-12-25T00:09:19.006Z,27.60
2022-12-25T00:11:07.392Z,13.05
2022-12-25T00:12:39.592Z,6.82
2022-12-25T00:14:11.793Z,6.88
2022-12-25T00:15:43.896Z,5.63
2022-12-25T00:17:16.283Z,12.88
2022-12-25T00:18:48.762Z,8.18
2022-12-25T00:20:20.978Z,8.20
2022-12-25T00:21:53.019Z,7.85
2022-12-25T00:23:25.391Z,7.53
2022-12-25T00:24:57.441Z,13.23
2022-12-25T00:26:29.587Z,7.07
2022-12-25T00:28:01.634Z,7.68
2022-12-25T00:29:33.833Z,7.70
2022-12-25T00:31:10.768Z,12.02
2022-12-25T00:32:43.024Z,12.60
2022-12-25T00:34:15.091Z,9.30
2022-12-25T00:36:00.884Z,7.55
2022-12-25T00:37:33.042Z,12.32
2022-12-25T00:39:05.283Z,4.75
2022-12-25T00:40:44.302Z,6.82
2022-12-25T00:42:19.309Z,7.78
2022-12-25T00:43:51.345Z,6.85
2022-12-25T00:45:23.453Z,10.50
2022-12-25T00:46:55.715Z,5.25
2022-12-25T00:48:29.458Z,7.45
2022-12-25T00:50:01.746Z,5.38
2022-12-25T00:51:35.595Z,14.35
2022-12-25T00:53:07.852Z,7.93
2022-12-25T00:54:39.981Z,8.40
2022-12-25T00:56:12.075Z,4.93
2022-12-25T00:57:44.210Z,4.57
2022-12-25T00:59:16.276Z,6.47
2022-12-25T01:00:49.910Z,8.57
2022-12-25T01:02:25.383Z,7.15
2022-12-25T01:03:57.833Z,5.25
2022-12-25T01:05:29.942Z,4.90
2022-12-25T01:07:02.039Z,8.57
2022-12-25T01:08:37.025Z,6.30
2022-12-25T01:10:22.869Z,7.00
2022-12-25T01:11:54.943Z,6.60
2022-12-25T01:13:31.075Z,5.38
2022-12-25T01:15:05.325Z,3.65
2022-12-25T01:16:37.894Z,5.55
2022-12-25T01:18:12.890Z,14.00
2022-12-25T01:19:45.277Z,7.68
2022-12-25T01:21:20.122Z,13.98
2022-12-25T01:22:52.342Z,8.75
2022-12-25T01:24:26.067Z,6.38
2022-12-25T01:26:08.113Z,12.55
2022-12-25T01:27:41.979Z,16.80
2022-12-25T01:29:14.137Z,9.32
2022-12-25T01:30:49.744Z,13.35
2022-12-25T01:32:21.782Z,10.27
2022-12-25T01:33:53.913Z,5.20
2022-12-25T01:35:26.035Z,6.50
2022-12-25T01:36:58.285Z,8.17
2022-12-25T01:38:30.460Z,8.52
2022-12-25T01:40:02.512Z,9.75
2022-12-25T01:41:35.642Z,8.30
2022-12-25T01:43:32.089Z,6.90
2022-12-25T01:45:25.762Z,5.60
2022-12-25T01:48:34.320Z,7.45
2022-12-25T01:50:07.084Z,10.93
2022-12-25T01:53:14.095Z,9.07
2022-12-25T01:54:55.016Z,5.63
2022-12-25T01:56:29.044Z,9.75
2022-12-25T01:58:01.234Z,6.72
2022-12-25T01:59:33.435Z,19.25
2022-12-25T02:01:05.663Z,5.15
2022-12-25T02:02:38.431Z,5.78
2022-12-25T02:05:51.037Z,6.72
2022-12-25T02:07:26.538Z,7.72
2022-12-25T02:08:59.380Z,9.45
2022-12-25T02:10:31.473Z,10.43
2022-12-25T02:12:04.242Z,10.40
2022-12-25T02:13:36.396Z,5.43
2022-12-25T02:15:14.516Z,5.35
2022-12-25T02:16:57.292Z,9.57
2022-12-25T02:18:33.365Z,6.18
2022-12-25T02:20:47.199Z,8.68
2022-12-25T02:22:41.048Z,8.63
2022-12-25T02:24:40.072Z,10.45
2022-12-25T02:26:23.074Z,4.57
2022-12-25T02:28:10.610Z,9.35
2022-12-25T02:29:54.784Z,7.85
2022-12-25T02:31:45.795Z,5.28
2022-12-25T02:33:44.150Z,5.07
2022-12-25T02:35:31.239Z,6.35
2022-12-25T02:37:38.050Z,10.05
2022-12-25T02:39:39.989Z,7.80
2022-12-25T02:41:16.014Z,11.30
2022-12-25T02:43:10.955Z,11.30
2022-12-25T02:45:04.634Z,11.05
2022-12-25T02:46:55.421Z,8.80
2022-12-25T02:48:50.699Z,10.80
2022-12-25T02:50:43.174Z,5.28
2022-12-25T02:52:39.302Z,7.13
2022-12-25T02:54:32.982Z,8.85
2022-12-25T02:58:18.392Z,10.07
2022-12-25T03:00:11.060Z,11.55
2022-12-25T03:02:03.581Z,12.48
2022-12-25T03:03:58.989Z,7.97
2022-12-25T03:05:51.757Z,9.27
2022-12-25T03:07:26.153Z,6.20
2022-12-25T03:09:21.702Z,7.50
2022-12-25T03:11:32.507Z,10.52
2022-12-25T03:13:11.777Z,6.20
2022-12-25T03:15:03.701Z,19.08
2022-12-25T03:16:54.157Z,7.53
2022-12-25T03:18:29.244Z,9.60
2022-12-25T03:20:19.907Z,6.15
2022-12-25T03:22:12.999Z,9.57
2022-12-25T03:24:09.604Z,8.73
2022-12-25T03:26:00.622Z,7.72
2022-12-25T03:27:34.709Z,6.75
2022-12-25T03:29:06.917Z,6.57
2022-12-25T03:31:06.997Z,5.70
2022-12-25T03:32:47.663Z,11.93
2022-12-25T03:34:54.040Z,8.02
2022-12-25T03:36:35.558Z,20.95
2022-12-25T03:38:41.811Z,5.57
2022-12-25T03:40:53.093Z,4.93
2022-12-25T03:42:49.552Z,9.43
2022-12-25T03:45:30.907Z,7.15
2022-12-25T03:47:35.610Z,4.50
2022-12-25T03:49:52.768Z,7.72
2022-12-25T03:51:49.731Z,10.25
2022-12-25T03:53:48.488Z,9.45
2022-12-25T03:55:40.304Z,10.98
2022-12-25T03:57:32.707Z,11.75
2022-12-25T03:59:24.221Z,5.20
2022-12-25T04:01:15.402Z,12.23
2022-12-25T04:03:06.061Z,5.70
2022-12-25T04:04:57.297Z,9.48
2022-12-25T04:06:47.766Z,8.98
2022-12-25T04:08:38.432Z,7.70
2022-12-25T04:10:29.085Z,5.80
2022-12-25T04:12:19.838Z,7.82
2022-12-25T04:14:10.569Z,4.68
2022-12-25T04:16:01.449Z,12.30
2022-12-25T04:17:52.097Z,6.18
2022-12-25T04:19:43.118Z,14.48
2022-12-25T04:21:33.631Z,7.28
2022-12-25T04:23:24.625Z,8.63
2022-12-25T04:25:15.231Z,7.43
2022-12-25T04:27:05.821Z,21.63
2022-12-25T04:28:56.445Z,12.48
2022-12-25T04:30:46.798Z,5.47
2022-12-25T04:32:37.461Z,11.30
2022-12-25T04:34:28.160Z,6.03
2022-12-25T04:36:09.375Z,10.15
2022-12-25T04:37:41.547Z,4.18
2022-12-25T04:39:13.763Z,8.98
2022-12-25T04:40:45.865Z,24.92
2022-12-25T04:42:18.079Z,9.40
2022-12-25T04:43:50.237Z,8.70
2022-12-25T04:45:22.721Z,6.13
2022-12-25T04:46:55.010Z,5.10
2022-12-25T04:48:27.804Z,11.15
2022-12-25T04:49:59.938Z,5.03
2022-12-25T04:51:32.080Z,4.10
2022-12-25T04:53:04.210Z,5.47
2022-12-25T04:54:38.343Z,8.90
2022-12-25T04:56:10.506Z,13.05
2022-12-25T04:57:42.615Z,4.57
2022-12-25T04:59:14.779Z,7.00
2022-12-25T05:00:46.873Z,7.40
2022-12-25T05:02:19.200Z,6.35
2022-12-25T05:03:51.863Z,11.82
2022-12-25T05:05:24.398Z,8.40
2022-12-25T05:06:56.476Z,14.35
2022-12-25T05:08:30.620Z,10.10
2022-12-25T05:10:02.718Z,6.45
2022-12-25T05:11:34.872Z,6.03
2022-12-25T05:13:06.967Z,11.07
2022-12-25T05:14:40.180Z,13.25
2022-12-25T05:16:15.970Z,7.72
2022-12-25T05:17:48.175Z,6.80
2022-12-25T05:19:20.299Z,5.35
2022-12-25T05:20:55.831Z,4.85
2022-12-25T05:22:27.958Z,8.30
2022-12-25T05:24:00.025Z,12.23
2022-12-25T05:25:32.216Z,9.30
2022-12-25T05:27:04.336Z,5.38
2022-12-25T05:28:36.905Z,7.67
2022-12-25T05:30:09.504Z,7.72
2022-12-25T05:31:41.716Z,7.47
2022-12-25T05:33:15.279Z,5.38
2022-12-25T05:34:47.350Z,8.63
2022-12-25T05:36:19.474Z,4.90
2022-12-25T05:37:51.660Z,8.50
2022-12-25T05:39:24.311Z,5.20
2022-12-25T05:40:56.416Z,10.43
2022-12-25T05:42:28.571Z,9.85
2022-12-25T05:44:00.688Z,5.05
2022-12-25T05:45:32.788Z,8.02
2022-12-25T05:47:05.144Z,6.70
2022-12-25T05:48:38.125Z,8.25
2022-12-25T05:50:11.225Z,5.82
2022-12-25T05:51:43.352Z,9.57
2022-12-25T05:53:16.062Z,4.75
2022-12-25T05:54:48.215Z,14.68
2022-12-25T05:56:20.412Z,6.20
2022-12-25T05:57:52.526Z,6.03
2022-12-25T05:59:24.659Z,13.25
2022-12-25T06:00:57.496Z,6.05
2022-12-25T06:04:04.629Z,11.35
2022-12-25T06:05:40.523Z,7.45
2022-12-25T06:07:12.688Z,6.97
2022-12-25T06:08:45.010Z,7.85
2022-12-25T06:10:17.103Z,7.75
2022-12-25T06:11:49.180Z,4.55
2022-12-25T06:13:21.351Z,13.23
2022-12-25T06:14:53.422Z,9.52
2022-12-25T06:16:25.610Z,8.77
2022-12-25T06:18:00.403Z,5.07
2022-12-25T06:19:32.605Z,3.33
2022-12-25T06:21:13.010Z,8.32
2022-12-25T06:22:45.341Z,6.78
2022-12-25T06:24:21.282Z,6.03
2022-12-25T06:25:53.825Z,7.30
2022-12-25T06:27:26.119Z,8.15
2022-12-25T06:28:58.355Z,8.00
2022-12-25T06:30:30.508Z,6.07
2022-12-25T06:32:03.146Z,6.78
2022-12-25T06:33:35.598Z,5.65
2022-12-25T06:35:08.086Z,6.68
2022-12-25T06:36:40.198Z,6.22
2022-12-25T06:38:12.414Z,11.95
2022-12-25T06:39:44.500Z,6.60
2022-12-25T06:41:21.860Z,7.90
2022-12-25T06:42:53.979Z,8.35
2022-12-25T06:44:26.261Z,4.85
2022-12-25T06:46:03.281Z,12.63
2022-12-25T06:47:36.514Z,6.78
2022-12-25T06:49:10.627Z,7.47
2022-12-25T06:50:44.277Z,3.75
2022-12-25T06:52:16.476Z,7.03
2022-12-25T06:53:49.958Z,12.32
2022-12-25T06:55:22.111Z,5.85
2022-12-25T06:56:54.252Z,4.38
2022-12-25T06:58:26.306Z,5.20
2022-12-25T06:59:58.476Z,7.90
2022-12-25T07:01:52.859Z,5.73
2022-12-25T07:03:28.564Z,4.63
2022-12-25T07:05:02.049Z,6.20
2022-12-25T07:06:34.665Z,12.05
2022-12-25T07:08:06.745Z,6.60
2022-12-25T07:09:39.650Z,5.77
2022-12-25T07:11:12.184Z,5.03
2022-12-25T07:12:44.281Z,7.45
2022-12-25T07:14:24.236Z,7.70
2022-12-25T07:15:57.922Z,8.38
2022-12-25T07:17:30.041Z,9.68
2022-12-25T07:19:02.098Z,6.30
2022-12-25T07:20:34.159Z,8.07
2022-12-25T07:22:06.277Z,7.37
2022-12-25T07:23:38.626Z,7.63
2022-12-25T07:25:10.764Z,5.78
2022-12-25T07:26:42.856Z,8.57
2022-12-25T07:28:14.953Z,13.82
2022-12-25T07:29:47.012Z,6.93
2022-12-25T07:31:19.363Z,10.00
2022-12-25T07:32:51.765Z,18.30
2022-12-25T07:34:24.098Z,5.88
2022-12-25T07:35:56.219Z,7.47
2022-12-25T07:37:28.385Z,5.70
2022-12-25T07:39:00.552Z,11.38
2022-12-25T07:40:32.960Z,9.57
2022-12-25T07:42:05.114Z,7.22
2022-12-25T07:43:37.554Z,12.20
2022-12-25T07:45:10.108Z,15.73
2022-12-25T07:46:42.622Z,4.97
2022-12-25T07:48:16.857Z,19.90
2022-12-25T07:49:49.284Z,6.60
2022-12-25T07:51:21.573Z,11.60
2022-12-25T07:52:53.646Z,11.07
2022-12-25T07:54:26.390Z,10.65
2022-12-25T07:56:01.558Z,10.40
2022-12-25T07:57:34.528Z,5.43
2022-12-25T08:00:38.718Z,8.63
2022-12-25T08:02:11.702Z,10.07
2022-12-25T08:03:44.618Z,11.77
2022-12-25T08:06:49.066Z,8.40
2022-12-25T08:08:21.213Z,8.23
2022-12-25T08:09:53.259Z,9.93
2022-12-25T08:11:25.450Z,10.00
2022-12-25T08:12:57.588Z,17.48
2022-12-25T08:14:29.867Z,13.05
2022-12-25T08:16:03.905Z,10.48
2022-12-25T08:17:36.059Z,13.20
2022-12-25T08:19:09.068Z,13.53
2022-12-25T08:22:13.075Z,19.52
2022-12-25T08:23:46.776Z,20.58
2022-12-25T08:25:18.947Z,17.98
2022-12-25T08:26:51.048Z,14.55
2022-12-25T08:28:23.115Z,10.65
2022-12-25T08:29:55.238Z,11.32
2022-12-25T08:31:29.664Z,16.05
2022-12-25T08:33:02.086Z,10.52
2022-12-25T08:34:34.210Z,11.23
2022-12-25T08:36:10.332Z,19.55
2022-12-25T08:37:42.464Z,10.52
2022-12-25T08:39:14.582Z,15.90
2022-12-25T08:40:46.690Z,10.90
2022-12-25T08:42:18.769Z,16.23
2022-12-25T08:43:50.874Z,8.43
2022-12-25T08:45:23.204Z,12.25
2022-12-25T08:46:55.358Z,14.77
2022-12-25T08:48:27.492Z,9.27
2022-12-25T08:49:59.609Z,10.27
2022-12-25T08:51:32.172Z,9.80
2022-12-25T08:53:04.222Z,11.10
2022-12-25T08:54:36.560Z,9.80
2022-12-25T08:56:08.824Z,10.52
2022-12-25T08:57:41.216Z,16.85
2022-12-25T08:59:13.356Z,10.35
2022-12-25T09:00:45.517Z,11.40
2022-12-25T09:02:18.710Z,17.00
2022-12-25T09:03:51.170Z,7.80
2022-12-25T09:05:23.357Z,15.52
2022-12-25T09:06:55.950Z,12.07
2022-12-25T09:08:28.017Z,15.88
2022-12-25T09:10:00.160Z,13.23
2022-12-25T09:11:32.356Z,19.08
2022-12-25T09:13:05.215Z,12.85
2022-12-25T09:14:37.309Z,15.65
2022-12-25T09:16:15.277Z,14.10
2022-12-25T09:17:47.623Z,12.88
2022-12-25T09:19:19.866Z,24.75
2022-12-25T09:21:04.268Z,15.50
2022-12-25T09:22:36.436Z,10.05
2022-12-25T09:24:08.771Z,20.98
2022-12-25T09:25:40.930Z,13.80
2022-12-25T09:27:13.130Z,25.42
2022-12-25T09:28:51.245Z,17.33
2022-12-25T09:30:24.262Z,13.90
2022-12-25T09:31:56.420Z,10.57
2022-12-25T09:33:28.618Z,15.90
2022-12-25T09:35:00.789Z,15.15
2022-12-25T09:36:32.927Z,22.43
2022-12-25T09:38:05.046Z,17.55
2022-12-25T09:39:42.163Z,12.83
2022-12-25T09:41:29.954Z,25.13
2022-12-25T09:43:03.820Z,14.82
2022-12-25T09:44:40.577Z,11.07
2022-12-25T09:46:17.313Z,14.30
2022-12-25T09:47:50.588Z,18.00
2022-12-25T09:49:37.310Z,15.65
2022-12-25T09:51:14.928Z,14.13
2022-12-25T09:53:12.802Z,13.82
2022-12-25T09:54:44.896Z,11.45
2022-12-25T09:56:26.490Z,12.82
2022-12-25T09:58:01.160Z,12.27
2022-12-25T09:59:33.274Z,13.98
2022-12-25T10:01:13.864Z,16.88
2022-12-25T10:03:07.775Z,24.92
2022-12-25T10:05:18.444Z,14.65
2022-12-25T10:07:16.069Z,13.85
2022-12-25T10:09:09.162Z,17.75
2022-12-25T10:10:52.685Z,8.68
2022-12-25T10:12:37.665Z,19.17
2022-12-25T10:14:29.965Z,11.93
2022-12-25T10:16:11.157Z,11.02
2022-12-25T10:17:50.059Z,10.55
2022-12-25T10:19:24.963Z,13.88
2022-12-25T10:21:01.404Z,11.52
2022-12-25T10:22:42.459Z,12.73
2022-12-25T10:24:30.892Z,14.75
2022-12-25T10:26:04.505Z,27.20
2022-12-25T10:27:42.943Z,11.35
2022-12-25T10:29:19.563Z,14.55
2022-12-25T10:30:52.602Z,18.33
2022-12-25T10:32:24.779Z,11.98
2022-12-25T10:33:57.566Z,13.50
2022-12-25T10:35:31.638Z,16.00
2022-12-25T10:37:03.784Z,12.73
2022-12-25T10:38:36.841Z,12.50
2022-12-25T10:40:24.124Z,13.98
2022-12-25T10:42:08.646Z,16.42
2022-12-25T10:43:49.051Z,15.57
2022-12-25T10:45:21.672Z,20.05
2022-12-25T10:46:58.158Z,9.95
2022-12-25T10:48:32.564Z,15.73
2022-12-25T10:50:20.227Z,14.65
2022-12-25T10:51:52.599Z,16.00
2022-12-25T10:53:27.381Z,14.13
2022-12-25T10:55:11.315Z,17.92
2022-12-25T10:56:53.539Z,10.77
2022-12-25T10:58:26.057Z,12.88
2022-12-25T10:59:58.198Z,13.88
2022-12-25T11:01:30.396Z,14.85
2022-12-25T11:03:02.653Z,12.30
2022-12-25T11:04:35.844Z,17.50
2022-12-25T11:07:56.187Z,11.95
2022-12-25T11:09:28.901Z,17.73
2022-12-25T11:11:06.574Z,12.48
2022-12-25T11:12:43.367Z,13.10
2022-12-25T11:14:20.773Z,9.95
2022-12-25T11:16:15.237Z,14.10
2022-12-25T11:17:49.730Z,14.23
2022-12-25T11:19:24.352Z,24.33
2022-12-25T11:20:59.163Z,12.98
2022-12-25T11:22:31.360Z,11.35
2022-12-25T11:24:06.934Z,16.95
2022-12-25T11:25:38.966Z,14.93
2022-12-25T11:27:27.668Z,14.07
2022-12-25T11:28:59.866Z,10.48
2022-12-25T11:30:34.522Z,17.42
2022-12-25T11:32:16.531Z,10.95
2022-12-25T11:33:55.176Z,14.23
2022-12-25T11:35:32.284Z,15.90
2022-12-25T11:37:11.305Z,10.65
2022-12-25T11:38:43.559Z,12.95
2022-12-25T11:40:21.009Z,12.23
2022-12-25T11:42:17.666Z,11.38
2022-12-25T11:43:56.088Z,10.32
2022-12-25T11:45:36.407Z,11.32
2022-12-25T11:47:19.947Z,14.73
2022-12-25T11:49:00.661Z,14.25
2022-12-25T11:50:42.988Z,10.20
2022-12-25T11:52:17.214Z,14.90
2022-12-25T11:53:54.122Z,13.15
2022-12-25T11:55:46.319Z,9.88
2022-12-25T11:57:18.931Z,9.60
2022-12-25T11:59:18.245Z,19.33
2022-12-25T12:00:54.694Z,12.18
2022-12-25T12:02:35.690Z,17.90
2022-12-25T12:04:16.142Z,9.82
2022-12-25T12:05:51.786Z,9.05
2022-12-25T12:07:32.333Z,13.57
2022-12-25T12:09:14.879Z,12.55
2022-12-25T12:11:18.828Z,14.52
2022-12-25T12:13:11.466Z,16.42
2022-12-25T12:14:52.551Z,16.13
2022-12-25T12:16:24.953Z,15.15
2022-12-25T12:18:31.032Z,9.43
2022-12-25T12:20:34.115Z,8.45
2022-12-25T12:22:06.724Z,11.32
2022-12-25T12:23:48.486Z,9.50
2022-12-25T12:25:22.036Z,9.02
2022-12-25T12:27:03.908Z,9.70
2022-12-25T12:28:47.181Z,10.70
2022-12-25T12:30:24.431Z,10.93
2022-12-25T12:32:01.932Z,21.25
2022-12-25T12:33:40.436Z,10.82
2022-12-25T12:35:18.133Z,12.80
2022-12-25T12:36:53.288Z,12.27
2022-12-25T12:38:26.030Z,17.95
2022-12-25T12:39:58.620Z,11.13
2022-12-25T12:41:49.621Z,11.05
2022-12-25T12:43:52.700Z,17.45
2022-12-25T12:45:37.801Z,11.60
2022-12-25T12:47:29.388Z,11.98
2022-12-25T12:49:20.141Z,16.67
2022-12-25T12:51:06.205Z,10.82
2022-12-25T12:52:41.057Z,13.60
2022-12-25T12:54:23.287Z,12.70
2022-12-25T12:55:56.330Z,10.00
2022-12-25T12:57:32.906Z,13.07
2022-12-25T12:59:05.077Z,12.05
2022-12-25T13:00:49.091Z,17.02
2022-12-25T13:02:51.126Z,11.32
2022-12-25T13:04:52.147Z,21.10
2022-12-25T13:07:03.326Z,22.05
2022-12-25T13:09:03.931Z,12.63
2022-12-25T13:10:40.771Z,12.60
2022-12-25T13:12:15.069Z,9.70
2022-12-25T13:13:49.404Z,13.38
2022-12-25T13:15:24.954Z,14.65
2022-12-25T13:16:57.189Z,14.65
2022-12-25T13:18:31.726Z,18.45
2022-12-25T13:20:05.111Z,17.65
2022-12-25T13:21:37.288Z,20.95
2022-12-25T13:23:26.463Z,11.82
2022-12-25T13:25:05.166Z,15.98
2022-12-25T13:26:38.992Z,12.77
2022-12-25T13:28:14.903Z,21.98
2022-12-25T13:29:47.000Z,17.17
2022-12-25T13:31:22.571Z,16.10
2022-12-25T13:32:57.020Z,14.38
2022-12-25T13:34:32.825Z,18.42
2022-12-25T13:36:11.147Z,12.88
2022-12-25T13:37:44.491Z,19.25
2022-12-25T13:39:18.161Z,24.38
2022-12-25T13:41:14.257Z,12.82
2022-12-25T13:42:47.415Z,11.23
2022-12-25T13:44:29.983Z,13.07
2022-12-25T13:46:02.259Z,14.48
2022-12-25T13:47:37.120Z,13.65
2022-12-25T13:49:15.267Z,14.95
2022-12-25T13:50:56.721Z,15.25
2022-12-25T13:52:37.758Z,21.08
2022-12-25T13:54:13.106Z,21.83
2022-12-25T13:55:52.526Z,19.02
2022-12-25T13:57:29.137Z,13.48
2022-12-25T13:59:01.631Z,17.38
2022-12-25T14:00:39.591Z,11.45
2022-12-25T14:02:20.855Z,16.75
2022-12-25T14:03:54.710Z,14.10
2022-12-25T14:05:39.820Z,15.20
2022-12-25T14:07:20.715Z,22.70
2022-12-25T14:08:54.768Z,17.83
2022-12-25T14:10:34.715Z,17.65
2022-12-25T14:12:08.600Z,21.65
2022-12-25T14:13:44.394Z,12.18
2022-12-25T14:15:20.955Z,14.85
2022-12-25T14:16:56.346Z,17.80
2022-12-25T14:18:30.015Z,19.85
2022-12-25T14:20:07.921Z,15.80
2022-12-25T14:21:49.318Z,15.23
2022-12-25T14:23:21.593Z,16.52
2022-12-25T14:24:54.060Z,16.45
2022-12-25T14:26:31.907Z,19.13
2022-12-25T14:28:09.139Z,13.15
2022-12-25T14:29:44.762Z,25.50
2022-12-25T14:31:17.197Z,21.42
2022-12-25T14:32:53.553Z,16.23
2022-12-25T14:34:27.583Z,14.80
2022-12-25T14:35:59.994Z,17.65
2022-12-25T14:37:34.341Z,24.50
2022-12-25T14:39:21.243Z,19.80
2022-12-25T14:41:07.612Z,20.25
2022-12-25T14:42:39.758Z,20.63
2022-12-25T14:44:32.136Z,25.08
2022-12-25T14:46:08.150Z,23.65
2022-12-25T14:47:53.567Z,18.73
2022-12-25T14:49:25.888Z,37.65
2022-12-25T14:51:08.005Z,23.83
2022-12-25T14:52:44.560Z,17.42
2022-12-25T14:54:20.341Z,24.52
2022-12-25T14:55:54.122Z,26.17
2022-12-25T14:57:33.998Z,20.65
2022-12-25T14:59:09.627Z,19.25
2022-12-25T15:00:42.543Z,23.05
2022-12-25T15:03:50.881Z,21.67
2022-12-25T15:05:27.208Z,20.23
2022-12-25T15:07:07.042Z,18.45
2022-12-25T15:08:40.259Z,17.83
2022-12-25T15:10:57.604Z,17.92
2022-12-25T15:12:06.224Z,16.00
2022-12-25T15:13:38.355Z,21.95
2022-12-25T15:15:10.653Z,19.92
2022-12-25T15:16:46.043Z,19.25
2022-12-25T15:18:20.231Z,28.35
2022-12-25T15:19:54.615Z,18.73
2022-12-25T15:21:30.159Z,24.52
2022-12-25T15:23:18.835Z,23.27
2022-12-25T15:24:54.711Z,26.88
2022-12-25T15:26:32.321Z,26.38
2022-12-25T15:28:10.879Z,20.40
2022-12-25T15:30:09.156Z,31.33
2022-12-25T15:31:39.893Z,33.45
2022-12-25T15:33:15.646Z,20.75
2022-12-25T15:34:49.975Z,23.58
2022-12-25T15:36:22.842Z,17.85
2022-12-25T15:37:54.928Z,16.75
2022-12-25T15:39:27.002Z,18.30
2022-12-25T15:40:59.434Z,20.17
2022-12-25T15:42:31.453Z,26.75
2022-12-25T15:44:05.443Z,20.35
2022-12-25T15:45:38.306Z,27.17
2022-12-25T15:48:43.321Z,19.52
2022-12-25T15:50:17.144Z,22.48
2022-12-25T15:51:49.262Z,21.25
2022-12-25T15:53:21.415Z,28.25
2022-12-25T15:54:54.239Z,23.75
2022-12-25T15:57:58.688Z,21.13
2022-12-25T15:59:31.272Z,26.83
2022-12-25T16:01:03.585Z,22.27
2022-12-25T16:02:35.809Z,19.88
2022-12-25T16:04:08.040Z,29.88
2022-12-25T16:05:40.217Z,20.80
2022-12-25T16:07:21.728Z,24.93
2022-12-25T16:08:53.845Z,26.08
2022-12-25T16:10:26.027Z,22.80
2022-12-25T16:11:58.203Z,29.33
2022-12-25T16:13:30.417Z,24.55
2022-12-25T16:15:02.646Z,27.73
2022-12-25T16:16:35.555Z,19.58
2022-12-25T16:18:10.342Z,24.45
2022-12-25T16:19:44.850Z,20.05
2022-12-25T16:21:19.997Z,23.63
2022-12-25T16:22:52.087Z,27.30
2022-12-25T16:24:24.324Z,19.67
2022-12-25T16:25:56.431Z,19.65
2022-12-25T16:27:28.554Z,23.45
2022-12-25T16:29:06.761Z,30.97
2022-12-25T16:30:40.368Z,19.75
2022-12-25T16:32:13.703Z,24.65
2022-12-25T16:33:45.843Z,23.88
2022-12-25T16:35:17.997Z,19.88
2022-12-25T16:36:50.093Z,24.10
2022-12-25T16:38:22.291Z,23.23
2022-12-25T16:39:54.511Z,22.13
2022-12-25T16:41:26.744Z,17.65
2022-12-25T16:42:59.205Z,20.55
2022-12-25T16:44:31.361Z,23.52
2022-12-25T16:46:10.291Z,21.40
2022-12-25T16:47:42.419Z,22.02
2022-12-25T16:49:14.931Z,24.70
2022-12-25T16:50:47.116Z,20.73
2022-12-25T16:52:19.253Z,21.33
2022-12-25T16:53:51.336Z,20.23
2022-12-25T16:55:29.456Z,24.70
2022-12-25T16:57:02.289Z,26.25
2022-12-25T16:58:34.963Z,19.75
2022-12-25T17:00:08.751Z,21.15
2022-12-25T17:01:43.441Z,20.67
2022-12-25T17:03:15.771Z,29.98
2022-12-25T17:04:48.454Z,19.25
2022-12-25T17:06:28.352Z,25.83
2022-12-25T17:08:01.184Z,28.50
2022-12-25T17:09:35.432Z,25.35
2022-12-25T17:11:11.809Z,20.65
2022-12-25T17:15:50.779Z,22.92
2022-12-25T17:17:23.285Z,21.50
2022-12-25T17:19:04.407Z,18.17
2022-12-25T17:20:38.129Z,22.73
2022-12-25T17:22:10.487Z,22.25
2022-12-25T17:23:45.072Z,24.65
2022-12-25T17:25:17.299Z,19.40
2022-12-25T17:26:49.455Z,19.27
2022-12-25T17:28:21.666Z,21.10
2022-12-25T17:29:53.821Z,21.48
2022-12-25T17:31:26.018Z,18.42
2022-12-25T17:32:58.229Z,30.40
2022-12-25T17:34:30.302Z,23.38
2022-12-25T17:36:04.289Z,23.48
2022-12-25T17:37:36.381Z,23.70
2022-12-25T17:39:10.484Z,18.42
2022-12-25T17:40:42.853Z,16.52
2022-12-25T17:42:15.022Z,16.90
2022-12-25T17:43:48.115Z,21.65
2022-12-25T17:45:20.379Z,17.13
2022-12-25T17:46:52.585Z,20.60
2022-12-25T17:48:24.953Z,17.30
2022-12-25T17:49:57.176Z,25.00
2022-12-25T17:51:30.868Z,21.58
2022-12-25T17:53:05.248Z,18.20
2022-12-25T17:54:40.542Z,20.52
2022-12-25T17:56:14.149Z,26.30
2022-12-25T17:57:46.400Z,25.85
2022-12-25T17:59:18.978Z,28.17
2022-12-25T18:00:51.391Z,19.70
2022-12-25T18:02:23.724Z,25.67
2022-12-25T18:03:56.365Z,20.58
2022-12-25T18:05:28.632Z,21.40
2022-12-25T18:07:00.762Z,21.63
2022-12-25T18:08:38.971Z,25.75
2022-12-25T18:10:11.973Z,23.33
2022-12-25T18:11:44.093Z,22.98
2022-12-25T18:13:16.341Z,24.75
2022-12-25T18:14:48.516Z,22.90
2022-12-25T18:16:23.204Z,20.08
2022-12-25T18:17:55.354Z,24.98
2022-12-25T18:19:27.524Z,22.45
2022-12-25T18:21:00.049Z,24.30
2022-12-25T18:22:34.257Z,29.55
2022-12-25T18:24:07.469Z,28.52
2022-12-25T18:25:41.609Z,26.70
2022-12-25T18:27:14.156Z,21.00
2022-12-25T18:28:47.514Z,22.05
2022-12-25T18:30:20.111Z,23.60
2022-12-25T18:31:52.366Z,24.60
2022-12-25T18:33:24.979Z,22.02
2022-12-25T18:34:57.170Z,21.00
2022-12-25T18:36:30.425Z,28.55
2022-12-25T18:38:02.570Z,20.15
2022-12-25T18:39:34.741Z,27.83
2022-12-25T18:41:08.123Z,19.73
2022-12-25T18:42:40.339Z,29.00
2022-12-25T18:44:12.512Z,19.50
2022-12-25T18:45:44.698Z,22.70
2022-12-25T18:47:16.893Z,21.35
2022-12-25T18:48:48.974Z,29.52
2022-12-25T18:50:21.132Z,20.65
2022-12-25T18:51:53.296Z,25.17
2022-12-25T18:53:45.557Z,21.85
2022-12-25T18:55:17.629Z,19.08
2022-12-25T18:56:53.560Z,15.75
2022-12-25T18:58:26.409Z,25.48
2022-12-25T19:00:03.126Z,24.17
2022-12-25T19:01:37.090Z,27.00
2022-12-25T19:03:09.544Z,18.40
2022-12-25T19:04:43.609Z,25.13
2022-12-25T19:06:21.360Z,20.73
2022-12-25T19:07:53.627Z,20.25
2022-12-25T19:09:25.822Z,38.42
2022-12-25T19:10:57.961Z,24.33
2022-12-25T19:12:30.077Z,17.35
2022-12-25T19:14:02.187Z,20.55
2022-12-25T19:15:35.840Z,23.42
2022-12-25T19:17:10.595Z,21.08
2022-12-25T19:18:43.512Z,16.00
2022-12-25T19:20:15.761Z,30.10
2022-12-25T19:21:55.351Z,19.75
2022-12-25T19:23:27.483Z,18.27
2022-12-25T19:24:59.640Z,18.25
2022-12-25T19:26:31.780Z,20.48
2022-12-25T19:28:04.291Z,20.10
2022-12-25T19:29:36.414Z,19.88
2022-12-25T19:31:09.759Z,19.98
2022-12-25T19:32:43.300Z,17.02
2022-12-25T19:34:15.681Z,15.00
2022-12-25T19:35:49.048Z,19.02
2022-12-25T19:37:21.194Z,17.38
2022-12-25T19:38:53.826Z,17.70
2022-12-25T19:40:26.455Z,17.20
2022-12-25T19:41:58.565Z,14.70
2022-12-25T19:43:41.899Z,16.95
2022-12-25T19:46:46.017Z,17.70
2022-12-25T19:48:18.097Z,15.27
2022-12-25T19:49:53.211Z,24.65
2022-12-25T19:51:28.216Z,20.33
2022-12-25T19:53:00.371Z,18.17
2022-12-25T19:54:32.530Z,17.33
2022-12-25T19:56:04.859Z,19.45
2022-12-25T19:57:36.963Z,16.73
2022-12-25T19:59:10.821Z,16.80
2022-12-25T20:00:43.027Z,33.83
2022-12-25T20:02:15.427Z,17.60
2022-12-25T20:03:49.400Z,17.05
2022-12-25T20:05:21.585Z,17.92
2022-12-25T20:06:54.340Z,18.08
2022-12-25T20:08:26.612Z,19.45
2022-12-25T20:09:58.739Z,17.08
2022-12-25T20:11:32.502Z,22.67
2022-12-25T20:13:04.765Z,17.75
2022-12-25T20:14:37.301Z,12.80
2022-12-25T20:16:10.370Z,16.25
2022-12-25T20:17:42.697Z,18.67
2022-12-25T20:19:17.308Z,23.50
2022-12-25T20:20:49.481Z,20.25
2022-12-25T20:22:21.587Z,15.40
2022-12-25T20:23:54.319Z,20.52
2022-12-25T20:25:26.548Z,11.95
2022-12-25T20:26:59.382Z,18.63
2022-12-25T20:30:04.984Z,17.38
2022-12-25T20:31:37.221Z,21.60
2022-12-25T20:34:42.387Z,15.02
2022-12-25T20:36:15.218Z,20.55
2022-12-25T20:37:47.339Z,17.85
2022-12-25T20:39:19.600Z,20.25
2022-12-25T20:41:26.232Z,22.25
2022-12-25T20:42:53.932Z,17.35
2022-12-25T20:44:26.070Z,27.88
2022-12-25T20:45:58.897Z,14.05
2022-12-25T20:47:30.984Z,24.08
2022-12-25T20:49:03.458Z,17.23
2022-12-25T20:50:35.587Z,16.13
2022-12-25T20:52:07.909Z,19.80
2022-12-25T20:53:40.414Z,17.15
2022-12-25T20:55:14.234Z,19.58
2022-12-25T20:56:48.501Z,23.17
2022-12-25T20:58:20.631Z,17.48
2022-12-25T20:59:53.549Z,24.90
2022-12-25T21:02:58.899Z,18.45
2022-12-25T21:04:31.218Z,28.10
2022-12-25T21:06:03.491Z,21.42
2022-12-25T21:07:35.755Z,19.27
2022-12-25T21:09:07.832Z,23.57
2022-12-25T21:10:40.022Z,19.77
2022-12-25T21:12:12.145Z,28.25
2022-12-25T21:13:46.226Z,22.38
2022-12-25T21:15:18.338Z,20.13
2022-12-25T21:16:50.979Z,18.80
2022-12-25T21:18:25.141Z,23.23
2022-12-25T21:19:57.350Z,14.50
2022-12-25T21:21:29.521Z,18.55
2022-12-25T21:23:01.685Z,16.75
2022-12-25T21:24:33.930Z,16.85
2022-12-25T21:26:21.437Z,30.77
2022-12-25T21:27:53.562Z,27.35